sensor_id;sensor_type;location;lat;lon;timestamp;P1;durP1;ratioP1;P2;durP2;ratioP2
31308;SDS011;17936;52.446;10.840;2022-12-08T00:01:10;17.20;;;9.60;;
31308;SDS011;17936;52.446;10.840;2022-12-08T00:03:37;25.40;;;10.57;;
31308;SDS011;17936;52.446;10.840;2022-12-08T00:06:03;15.25;;;9.40;;
31308;SDS011;17936;52.446;10.840;2022-12-08T00:08:49;16.38;;;9.63;;
31308;SDS011;17936;52.446;10.840;2022-12-08T00:11:33;18.15;;;10.00;;
31308;SDS011;17936;52.446;10.840;2022-12-08T00:13:59;19.02;;;9.40;;
31308;SDS011;17936;52.446;10.840;2022-12-08T00:16:25;17.48;;;9.45;;
31308;SDS011;17936;52.446;10.840;2022-12-08T00:18:50;17.08;;;9.35;;
31308;SDS011;17936;52.446;10.840;2022-12-08T00:21:15;14.38;;;8.82;;
31308;SDS011;17936;52.446;10.840;2022-12-08T00:23:41;17.85;;;9.20;;
31308;SDS011;17936;52.446;10.840;2022-12-08T00:26:07;17.73;;;9.55;;
31308;SDS011;17936;52.446;10.840;2022-12-08T00:28:32;21.60;;;10.00;;
31308;SDS011;17936;52.446;10.840;2022-12-08T00:30:59;16.73;;;10.13;;
31308;SDS011;17936;52.446;10.840;2022-12-08T00:33:30;19.90;;;12.15;;
31308;SDS011;17936;52.446;10.840;2022-12-08T00:35:56;25.08;;;11.10;;
31308;SDS011;17936;52.446;10.840;2022-12-08T00:38:21;16.40;;;10.02;;
31308;SDS011;17936;52.446;10.840;2022-12-08T00:40:47;19.30;;;9.25;;
31308;SDS011;17936;52.446;10.840;2022-12-08T00:43:12;20.23;;;9.55;;
31308;SDS011;17936;52.446;10.840;2022-12-08T00:45:38;15.05;;;9.30;;
31308;SDS011;17936;52.446;10.840;2022-12-08T00:48:04;22.15;;;9.73;;
31308;SDS011;17936;52.446;10.840;2022-12-08T00:50:30;15.98;;;9.20;;
31308;SDS011;17936;52.446;10.840;2022-12-08T00:52:56;20.05;;;9.93;;
31308;SDS011;17936;52.446;10.840;2022-12-08T00:55:21;18.27;;;9.07;;
31308;SDS011;17936;52.446;10.840;2022-12-08T00:57:47;20.73;;;10.88;;
31308;SDS011;17936;52.446;10.840;2022-12-08T01:00:12;16.02;;;10.02;;
31308;SDS011;17936;52.446;10.840;2022-12-08T01:02:39;19.75;;;11.68;;
31308;SDS011;17936;52.446;10.840;2022-12-08T01:05:04;21.05;;;13.50;;
31308;SDS011;17936;52.446;10.840;2022-12-08T01:07:30;24.35;;;13.77;;
31308;SDS011;17936;52.446;10.840;2022-12-08T01:09:56;18.88;;;12.63;;
31308;SDS011;17936;52.446;10.840;2022-12-08T01:12:21;21.58;;;13.90;;
31308;SDS011;17936;52.446;10.840;2022-12-08T01:14:47;13.07;;;8.48;;
31308;SDS011;17936;52.446;10.840;2022-12-08T01:17:12;17.83;;;9.57;;
31308;SDS011;17936;52.446;10.840;2022-12-08T01:19:38;12.13;;;8.32;;
31308;SDS011;17936;52.446;10.840;2022-12-08T01:22:03;14.85;;;8.85;;
31308;SDS011;17936;52.446;10.840;2022-12-08T01:24:29;15.35;;;9.43;;
31308;SDS011;17936;52.446;10.840;2022-12-08T01:26:54;16.92;;;9.30;;
31308;SDS011;17936;52.446;10.840;2022-12-08T01:29:20;17.98;;;9.50;;
31308;SDS011;17936;52.446;10.840;2022-12-08T01:31:46;17.42;;;9.80;;
31308;SDS011;17936;52.446;10.840;2022-12-08T01:34:11;17.30;;;9.82;;
31308;SDS011;17936;52.446;10.840;2022-12-08T01:36:37;16.15;;;9.85;;
31308;SDS011;17936;52.446;10.840;2022-12-08T01:39:04;16.58;;;9.85;;
31308;SDS011;17936;52.446;10.840;2022-12-08T01:41:32;19.65;;;10.27;;
31308;SDS011;17936;52.446;10.840;2022-12-08T01:46:35;23.52;;;14.60;;
31308;SDS011;17936;52.446;10.840;2022-12-08T01:49:13;27.33;;;16.10;;
31308;SDS011;17936;52.446;10.840;2022-12-08T01:52:04;29.30;;;16.02;;
31308;SDS011;17936;52.446;10.840;2022-12-08T01:54:38;31.42;;;16.58;;
31308;SDS011;17936;52.446;10.840;2022-12-08T01:57:14;30.50;;;18.10;;
31308;SDS011;17936;52.446;10.840;2022-12-08T01:59:46;28.48;;;15.98;;
31308;SDS011;17936;52.446;10.840;2022-12-08T02:02:14;19.60;;;12.70;;
31308;SDS011;17936;52.446;10.840;2022-12-08T02:04:40;25.58;;;12.20;;
31308;SDS011;17936;52.446;10.840;2022-12-08T02:07:06;24.83;;;11.05;;
31308;SDS011;17936;52.446;10.840;2022-12-08T02:09:34;18.80;;;11.25;;
31308;SDS011;17936;52.446;10.840;2022-12-08T02:12:00;22.98;;;10.75;;
31308;SDS011;17936;52.446;10.840;2022-12-08T02:14:26;19.55;;;11.77;;
31308;SDS011;17936;52.446;10.840;2022-12-08T02:22:40;18.85;;;10.27;;
31308;SDS011;17936;52.446;10.840;2022-12-08T02:25:45;17.85;;;10.25;;
31308;SDS011;17936;52.446;10.840;2022-12-08T02:28:32;17.98;;;10.32;;
31308;SDS011;17936;52.446;10.840;2022-12-08T02:33:55;23.83;;;11.15;;
31308;SDS011;17936;52.446;10.840;2022-12-08T02:39:51;25.55;;;11.85;;
31308;SDS011;17936;52.446;10.840;2022-12-08T02:45:25;25.10;;;9.55;;
31308;SDS011;17936;52.446;10.840;2022-12-08T02:47:56;19.70;;;10.10;;
31308;SDS011;17936;52.446;10.840;2022-12-08T02:50:22;16.38;;;9.90;;
31308;SDS011;17936;52.446;10.840;2022-12-08T02:52:48;16.77;;;9.65;;
31308;SDS011;17936;52.446;10.840;2022-12-08T02:55:19;19.73;;;9.98;;
31308;SDS011;17936;52.446;10.840;2022-12-08T02:58:06;20.88;;;10.55;;
31308;SDS011;17936;52.446;10.840;2022-12-08T03:06:24;30.80;;;11.48;;
31308;SDS011;17936;52.446;10.840;2022-12-08T03:11:28;21.90;;;11.05;;
31308;SDS011;17936;52.446;10.840;2022-12-08T03:14:08;20.40;;;11.30;;
31308;SDS011;17936;52.446;10.840;2022-12-08T03:16:37;28.17;;;14.63;;
31308;SDS011;17936;52.446;10.840;2022-12-08T03:19:13;31.77;;;13.45;;
31308;SDS011;17936;52.446;10.840;2022-12-08T03:21:44;26.83;;;14.52;;
31308;SDS011;17936;52.446;10.840;2022-12-08T03:24:12;21.33;;;11.40;;
31308;SDS011;17936;52.446;10.840;2022-12-08T03:26:57;21.45;;;11.00;;
31308;SDS011;17936;52.446;10.840;2022-12-08T03:29:27;23.45;;;9.75;;
31308;SDS011;17936;52.446;10.840;2022-12-08T03:31:55;19.75;;;9.48;;
31308;SDS011;17936;52.446;10.840;2022-12-08T03:34:25;18.48;;;9.73;;
31308;SDS011;17936;52.446;10.840;2022-12-08T03:36:53;20.48;;;8.45;;
31308;SDS011;17936;52.446;10.840;2022-12-08T03:39:18;17.45;;;8.60;;
31308;SDS011;17936;52.446;10.840;2022-12-08T03:41:44;23.35;;;9.25;;
31308;SDS011;17936;52.446;10.840;2022-12-08T03:44:10;17.73;;;9.10;;
31308;SDS011;17936;52.446;10.840;2022-12-08T03:46:36;18.73;;;8.82;;
31308;SDS011;17936;52.446;10.840;2022-12-08T03:49:02;18.40;;;8.48;;
31308;SDS011;17936;52.446;10.840;2022-12-08T03:51:27;16.48;;;8.63;;
31308;SDS011;17936;52.446;10.840;2022-12-08T03:53:53;15.65;;;8.13;;
31308;SDS011;17936;52.446;10.840;2022-12-08T03:56:26;13.23;;;7.72;;
31308;SDS011;17936;52.446;10.840;2022-12-08T03:58:54;13.48;;;7.65;;
31308;SDS011;17936;52.446;10.840;2022-12-08T04:01:20;16.30;;;7.97;;
31308;SDS011;17936;52.446;10.840;2022-12-08T04:03:46;13.73;;;8.23;;
31308;SDS011;17936;52.446;10.840;2022-12-08T04:06:12;19.38;;;8.98;;
31308;SDS011;17936;52.446;10.840;2022-12-08T04:08:38;13.93;;;8.30;;
31308;SDS011;17936;52.446;10.840;2022-12-08T04:11:04;18.40;;;8.63;;
31308;SDS011;17936;52.446;10.840;2022-12-08T04:13:30;19.55;;;9.07;;
31308;SDS011;17936;52.446;10.840;2022-12-08T04:15:57;19.23;;;9.35;;
31308;SDS011;17936;52.446;10.840;2022-12-08T04:18:23;16.30;;;8.18;;
31308;SDS011;17936;52.446;10.840;2022-12-08T04:20:48;14.43;;;8.15;;
31308;SDS011;17936;52.446;10.840;2022-12-08T04:23:14;17.95;;;8.60;;
31308;SDS011;17936;52.446;10.840;2022-12-08T04:25:39;13.65;;;7.53;;
31308;SDS011;17936;52.446;10.840;2022-12-08T04:28:05;14.60;;;8.05;;
31308;SDS011;17936;52.446;10.840;2022-12-08T04:30:31;15.98;;;8.15;;
31308;SDS011;17936;52.446;10.840;2022-12-08T04:32:56;16.58;;;8.48;;
31308;SDS011;17936;52.446;10.840;2022-12-08T04:35:22;16.00;;;7.30;;
31308;SDS011;17936;52.446;10.840;2022-12-08T04:37:48;16.73;;;8.35;;
31308;SDS011;17936;52.446;10.840;2022-12-08T04:40:13;18.25;;;8.20;;
31308;SDS011;17936;52.446;10.840;2022-12-08T04:42:39;22.48;;;8.88;;
31308;SDS011;17936;52.446;10.840;2022-12-08T04:45:05;13.15;;;7.72;;
31308;SDS011;17936;52.446;10.840;2022-12-08T04:47:31;12.80;;;7.38;;
31308;SDS011;17936;52.446;10.840;2022-12-08T04:49:57;18.88;;;8.23;;
31308;SDS011;17936;52.446;10.840;2022-12-08T04:52:22;17.33;;;7.65;;
31308;SDS011;17936;52.446;10.840;2022-12-08T04:54:48;12.20;;;7.38;;
31308;SDS011;17936;52.446;10.840;2022-12-08T04:57:13;16.67;;;7.05;;
31308;SDS011;17936;52.446;10.840;2022-12-08T04:59:39;15.38;;;7.95;;
31308;SDS011;17936;52.446;10.840;2022-12-08T05:02:05;13.60;;;7.38;;
31308;SDS011;17936;52.446;10.840;2022-12-08T05:04:30;15.15;;;7.55;;
31308;SDS011;17936;52.446;10.840;2022-12-08T05:06:56;13.18;;;7.00;;
31308;SDS011;17936;52.446;10.840;2022-12-08T05:09:21;22.92;;;8.07;;
31308;SDS011;17936;52.446;10.840;2022-12-08T05:11:47;15.90;;;7.20;;
31308;SDS011;17936;52.446;10.840;2022-12-08T05:14:14;15.60;;;8.52;;
31308;SDS011;17936;52.446;10.840;2022-12-08T05:16:40;17.85;;;7.13;;
31308;SDS011;17936;52.446;10.840;2022-12-08T05:19:06;20.05;;;7.75;;
31308;SDS011;17936;52.446;10.840;2022-12-08T05:21:32;17.67;;;8.00;;
31308;SDS011;17936;52.446;10.840;2022-12-08T05:23:58;19.92;;;8.13;;
31308;SDS011;17936;52.446;10.840;2022-12-08T05:26:24;17.70;;;7.40;;
31308;SDS011;17936;52.446;10.840;2022-12-08T05:28:49;15.60;;;7.13;;
31308;SDS011;17936;52.446;10.840;2022-12-08T05:31:15;16.35;;;7.63;;
31308;SDS011;17936;52.446;10.840;2022-12-08T05:33:41;22.13;;;8.32;;
31308;SDS011;17936;52.446;10.840;2022-12-08T05:36:09;21.60;;;7.72;;
31308;SDS011;17936;52.446;10.840;2022-12-08T05:38:36;17.08;;;8.65;;
31308;SDS011;17936;52.446;10.840;2022-12-08T05:41:01;19.25;;;8.80;;
31308;SDS011;17936;52.446;10.840;2022-12-08T05:43:27;21.38;;;8.45;;
31308;SDS011;17936;52.446;10.840;2022-12-08T05:45:53;15.60;;;8.15;;
31308;SDS011;17936;52.446;10.840;2022-12-08T05:48:18;17.33;;;9.13;;
31308;SDS011;17936;52.446;10.840;2022-12-08T05:50:44;22.05;;;8.60;;
31308;SDS011;17936;52.446;10.840;2022-12-08T05:53:14;21.50;;;9.00;;
31308;SDS011;17936;52.446;10.840;2022-12-08T05:55:40;16.05;;;8.75;;
31308;SDS011;17936;52.446;10.840;2022-12-08T05:58:06;27.45;;;9.57;;
31308;SDS011;17936;52.446;10.840;2022-12-08T06:00:42;21.02;;;9.15;;
31308;SDS011;17936;52.446;10.840;2022-12-08T06:03:10;20.85;;;8.90;;
31308;SDS011;17936;52.446;10.840;2022-12-08T06:05:36;17.15;;;8.45;;
31308;SDS011;17936;52.446;10.840;2022-12-08T06:08:01;21.52;;;9.07;;
31308;SDS011;17936;52.446;10.840;2022-12-08T06:10:27;18.10;;;8.68;;
31308;SDS011;17936;52.446;10.840;2022-12-08T06:12:52;20.50;;;9.90;;
31308;SDS011;17936;52.446;10.840;2022-12-08T06:15:18;15.55;;;8.77;;
31308;SDS011;17936;52.446;10.840;2022-12-08T06:17:43;18.90;;;8.98;;
31308;SDS011;17936;52.446;10.840;2022-12-08T06:20:09;16.40;;;8.55;;
31308;SDS011;17936;52.446;10.840;2022-12-08T06:22:35;16.13;;;8.52;;
31308;SDS011;17936;52.446;10.840;2022-12-08T06:25:00;18.38;;;9.32;;
31308;SDS011;17936;52.446;10.840;2022-12-08T06:27:26;17.70;;;9.70;;
31308;SDS011;17936;52.446;10.840;2022-12-08T06:29:52;17.50;;;9.05;;
31308;SDS011;17936;52.446;10.840;2022-12-08T06:32:17;17.40;;;9.23;;
31308;SDS011;17936;52.446;10.840;2022-12-08T06:34:43;24.00;;;10.13;;
31308;SDS011;17936;52.446;10.840;2022-12-08T06:37:08;19.63;;;10.07;;
31308;SDS011;17936;52.446;10.840;2022-12-08T06:39:34;18.40;;;10.07;;
31308;SDS011;17936;52.446;10.840;2022-12-08T06:41:59;22.98;;;9.88;;
31308;SDS011;17936;52.446;10.840;2022-12-08T06:44:43;23.45;;;10.68;;
31308;SDS011;17936;52.446;10.840;2022-12-08T06:47:09;17.25;;;9.18;;
31308;SDS011;17936;52.446;10.840;2022-12-08T06:49:34;18.88;;;9.75;;
31308;SDS011;17936;52.446;10.840;2022-12-08T06:52:00;21.30;;;11.00;;
31308;SDS011;17936;52.446;10.840;2022-12-08T06:54:25;23.92;;;11.73;;
31308;SDS011;17936;52.446;10.840;2022-12-08T06:56:51;19.60;;;10.98;;
31308;SDS011;17936;52.446;10.840;2022-12-08T06:59:16;19.25;;;10.48;;
31308;SDS011;17936;52.446;10.840;2022-12-08T07:01:43;25.40;;;11.95;;
31308;SDS011;17936;52.446;10.840;2022-12-08T07:04:09;23.92;;;13.02;;
31308;SDS011;17936;52.446;10.840;2022-12-08T07:06:35;26.52;;;12.25;;
31308;SDS011;17936;52.446;10.840;2022-12-08T07:09:00;25.33;;;11.73;;
31308;SDS011;17936;52.446;10.840;2022-12-08T07:11:26;29.40;;;13.63;;
31308;SDS011;17936;52.446;10.840;2022-12-08T07:13:52;24.95;;;13.32;;
31308;SDS011;17936;52.446;10.840;2022-12-08T07:16:20;21.88;;;11.10;;
31308;SDS011;17936;52.446;10.840;2022-12-08T07:18:46;23.10;;;12.20;;
31308;SDS011;17936;52.446;10.840;2022-12-08T07:21:12;27.88;;;11.73;;
31308;SDS011;17936;52.446;10.840;2022-12-08T07:23:41;24.48;;;12.52;;
31308;SDS011;17936;52.446;10.840;2022-12-08T07:26:10;32.30;;;13.07;;
31308;SDS011;17936;52.446;10.840;2022-12-08T07:28:37;22.40;;;13.05;;
31308;SDS011;17936;52.446;10.840;2022-12-08T07:31:04;24.20;;;12.82;;
31308;SDS011;17936;52.446;10.840;2022-12-08T07:33:30;21.23;;;11.10;;
31308;SDS011;17936;52.446;10.840;2022-12-08T07:35:58;26.40;;;12.60;;
31308;SDS011;17936;52.446;10.840;2022-12-08T07:38:25;27.23;;;13.88;;
31308;SDS011;17936;52.446;10.840;2022-12-08T07:40:51;21.67;;;11.73;;
31308;SDS011;17936;52.446;10.840;2022-12-08T07:43:18;27.58;;;12.93;;
31308;SDS011;17936;52.446;10.840;2022-12-08T07:45:44;24.55;;;12.95;;
31308;SDS011;17936;52.446;10.840;2022-12-08T07:48:10;26.55;;;12.68;;
31308;SDS011;17936;52.446;10.840;2022-12-08T07:50:36;25.95;;;13.02;;
31308;SDS011;17936;52.446;10.840;2022-12-08T07:53:02;26.23;;;12.20;;
31308;SDS011;17936;52.446;10.840;2022-12-08T07:55:27;21.42;;;11.65;;
31308;SDS011;17936;52.446;10.840;2022-12-08T07:57:53;28.02;;;12.07;;
31308;SDS011;17936;52.446;10.840;2022-12-08T08:00:18;22.85;;;11.82;;
31308;SDS011;17936;52.446;10.840;2022-12-08T08:02:44;20.27;;;11.63;;
31308;SDS011;17936;52.446;10.840;2022-12-08T08:05:10;25.13;;;12.65;;
31308;SDS011;17936;52.446;10.840;2022-12-08T08:07:36;23.67;;;12.23;;
31308;SDS011;17936;52.446;10.840;2022-12-08T08:10:03;20.02;;;11.30;;
31308;SDS011;17936;52.446;10.840;2022-12-08T08:12:30;23.00;;;11.80;;
31308;SDS011;17936;52.446;10.840;2022-12-08T08:14:56;24.10;;;12.32;;
31308;SDS011;17936;52.446;10.840;2022-12-08T08:17:21;22.95;;;10.95;;
31308;SDS011;17936;52.446;10.840;2022-12-08T08:19:47;22.05;;;11.30;;
31308;SDS011;17936;52.446;10.840;2022-12-08T08:22:12;26.60;;;11.88;;
31308;SDS011;17936;52.446;10.840;2022-12-08T08:24:38;20.70;;;11.93;;
31308;SDS011;17936;52.446;10.840;2022-12-08T08:27:03;21.00;;;11.52;;
31308;SDS011;17936;52.446;10.840;2022-12-08T08:29:29;22.20;;;12.57;;
31308;SDS011;17936;52.446;10.840;2022-12-08T08:31:54;19.33;;;11.02;;
31308;SDS011;17936;52.446;10.840;2022-12-08T08:34:20;21.92;;;12.07;;
31308;SDS011;17936;52.446;10.840;2022-12-08T08:36:45;22.45;;;11.85;;
31308;SDS011;17936;52.446;10.840;2022-12-08T08:39:11;25.00;;;12.52;;
31308;SDS011;17936;52.446;10.840;2022-12-08T08:41:37;28.10;;;14.38;;
31308;SDS011;17936;52.446;10.840;2022-12-08T08:44:03;24.48;;;14.20;;
31308;SDS011;17936;52.446;10.840;2022-12-08T08:46:28;25.98;;;12.65;;
31308;SDS011;17936;52.446;10.840;2022-12-08T08:48:54;23.60;;;12.32;;
31308;SDS011;17936;52.446;10.840;2022-12-08T08:51:20;19.33;;;11.52;;
31308;SDS011;17936;52.446;10.840;2022-12-08T08:53:45;24.80;;;12.93;;
31308;SDS011;17936;52.446;10.840;2022-12-08T08:56:12;19.17;;;10.07;;
31308;SDS011;17936;52.446;10.840;2022-12-08T08:58:41;20.10;;;11.77;;
31308;SDS011;17936;52.446;10.840;2022-12-08T09:01:13;21.08;;;11.95;;
31308;SDS011;17936;52.446;10.840;2022-12-08T09:03:46;23.25;;;11.98;;
31308;SDS011;17936;52.446;10.840;2022-12-08T09:06:12;17.00;;;10.60;;
31308;SDS011;17936;52.446;10.840;2022-12-08T09:08:39;22.92;;;12.55;;
31308;SDS011;17936;52.446;10.840;2022-12-08T09:11:05;20.05;;;10.77;;
31308;SDS011;17936;52.446;10.840;2022-12-08T09:13:31;22.35;;;11.00;;
31308;SDS011;17936;52.446;10.840;2022-12-08T09:15:56;20.27;;;10.45;;
31308;SDS011;17936;52.446;10.840;2022-12-08T09:18:24;19.17;;;11.50;;
31308;SDS011;17936;52.446;10.840;2022-12-08T09:20:49;18.38;;;11.18;;
31308;SDS011;17936;52.446;10.840;2022-12-08T09:23:15;21.10;;;11.88;;
31308;SDS011;17936;52.446;10.840;2022-12-08T09:25:42;25.40;;;12.40;;
31308;SDS011;17936;52.446;10.840;2022-12-08T09:28:09;24.90;;;13.27;;
31308;SDS011;17936;52.446;10.840;2022-12-08T09:30:34;20.33;;;11.25;;
31308;SDS011;17936;52.446;10.840;2022-12-08T09:33:00;20.85;;;12.27;;
31308;SDS011;17936;52.446;10.840;2022-12-08T09:35:25;24.45;;;13.45;;
31308;SDS011;17936;52.446;10.840;2022-12-08T09:37:51;19.88;;;11.90;;
31308;SDS011;17936;52.446;10.840;2022-12-08T09:40:18;24.33;;;13.00;;
31308;SDS011;17936;52.446;10.840;2022-12-08T09:45:15;23.90;;;12.90;;
31308;SDS011;17936;52.446;10.840;2022-12-08T09:48:29;24.30;;;13.68;;
31308;SDS011;17936;52.446;10.840;2022-12-08T09:50:36;27.58;;;13.85;;
31308;SDS011;17936;52.446;10.840;2022-12-08T09:53:18;23.45;;;12.40;;
31308;SDS011;17936;52.446;10.840;2022-12-08T09:58:43;21.48;;;12.60;;
31308;SDS011;17936;52.446;10.840;2022-12-08T10:01:35;22.98;;;12.65;;
31308;SDS011;17936;52.446;10.840;2022-12-08T10:04:22;24.88;;;13.57;;
31308;SDS011;17936;52.446;10.840;2022-12-08T10:07:02;22.15;;;12.77;;
31308;SDS011;17936;52.446;10.840;2022-12-08T10:09:38;24.08;;;13.63;;
31308;SDS011;17936;52.446;10.840;2022-12-08T10:12:19;23.42;;;13.40;;
31308;SDS011;17936;52.446;10.840;2022-12-08T10:14:53;25.25;;;14.57;;
31308;SDS011;17936;52.446;10.840;2022-12-08T10:17:34;30.83;;;16.63;;
31308;SDS011;17936;52.446;10.840;2022-12-08T10:20:12;29.25;;;15.98;;
31308;SDS011;17936;52.446;10.840;2022-12-08T10:22:43;26.20;;;14.93;;
31308;SDS011;17936;52.446;10.840;2022-12-08T10:25:17;34.65;;;17.73;;
31308;SDS011;17936;52.446;10.840;2022-12-08T10:27:47;34.22;;;17.55;;
31308;SDS011;17936;52.446;10.840;2022-12-08T10:30:16;33.83;;;19.45;;
31308;SDS011;17936;52.446;10.840;2022-12-08T10:32:43;31.77;;;18.38;;
31308;SDS011;17936;52.446;10.840;2022-12-08T10:35:13;31.40;;;17.95;;
31308;SDS011;17936;52.446;10.840;2022-12-08T10:37:39;32.58;;;17.80;;
31308;SDS011;17936;52.446;10.840;2022-12-08T10:40:09;38.55;;;19.80;;
31308;SDS011;17936;52.446;10.840;2022-12-08T10:42:48;30.25;;;17.45;;
31308;SDS011;17936;52.446;10.840;2022-12-08T10:45:29;28.25;;;15.10;;
31308;SDS011;17936;52.446;10.840;2022-12-08T10:48:05;28.48;;;15.82;;
31308;SDS011;17936;52.446;10.840;2022-12-08T10:53:18;28.63;;;16.77;;
31308;SDS011;17936;52.446;10.840;2022-12-08T10:55:50;32.63;;;17.60;;
31308;SDS011;17936;52.446;10.840;2022-12-08T11:00:51;25.67;;;15.23;;
31308;SDS011;17936;52.446;10.840;2022-12-08T11:03:24;31.30;;;17.65;;
31308;SDS011;17936;52.446;10.840;2022-12-08T11:05:55;31.30;;;17.63;;
31308;SDS011;17936;52.446;10.840;2022-12-08T11:08:23;27.88;;;16.02;;
31308;SDS011;17936;52.446;10.840;2022-12-08T11:10:49;26.13;;;14.88;;
31308;SDS011;17936;52.446;10.840;2022-12-08T11:13:17;26.15;;;15.73;;
31308;SDS011;17936;52.446;10.840;2022-12-08T11:15:50;21.08;;;12.82;;
31308;SDS011;17936;52.446;10.840;2022-12-08T11:18:22;28.33;;;16.27;;
31308;SDS011;17936;52.446;10.840;2022-12-08T11:20:57;21.65;;;13.18;;
31308;SDS011;17936;52.446;10.840;2022-12-08T11:23:26;30.90;;;15.93;;
31308;SDS011;17936;52.446;10.840;2022-12-08T11:25:55;29.92;;;15.90;;
31308;SDS011;17936;52.446;10.840;2022-12-08T11:28:25;21.83;;;12.33;;
31308;SDS011;17936;52.446;10.840;2022-12-08T11:30:52;23.17;;;13.63;;
31308;SDS011;17936;52.446;10.840;2022-12-08T11:33:25;16.52;;;9.55;;
31308;SDS011;17936;52.446;10.840;2022-12-08T11:35:57;13.65;;;8.93;;
31308;SDS011;17936;52.446;10.840;2022-12-08T11:38:28;16.75;;;9.68;;
31308;SDS011;17936;52.446;10.840;2022-12-08T11:41:04;16.83;;;8.57;;
31308;SDS011;17936;52.446;10.840;2022-12-08T11:43:42;12.80;;;7.28;;
31308;SDS011;17936;52.446;10.840;2022-12-08T11:46:20;12.82;;;7.43;;
31308;SDS011;17936;52.446;10.840;2022-12-08T11:49:00;12.77;;;7.10;;
31308;SDS011;17936;52.446;10.840;2022-12-08T11:51:45;9.90;;;5.88;;
31308;SDS011;17936;52.446;10.840;2022-12-08T11:54:35;11.27;;;6.78;;
31308;SDS011;17936;52.446;10.840;2022-12-08T11:57:10;10.13;;;6.47;;
31308;SDS011;17936;52.446;10.840;2022-12-08T11:59:41;11.25;;;6.20;;
31308;SDS011;17936;52.446;10.840;2022-12-08T12:02:13;10.15;;;6.80;;
31308;SDS011;17936;52.446;10.840;2022-12-08T12:04:50;11.82;;;6.30;;
31308;SDS011;17936;52.446;10.840;2022-12-08T12:13:29;12.57;;;7.55;;
31308;SDS011;17936;52.446;10.840;2022-12-08T12:16:21;14.05;;;7.82;;
31308;SDS011;17936;52.446;10.840;2022-12-08T12:19:12;12.50;;;6.95;;
31308;SDS011;17936;52.446;10.840;2022-12-08T12:21:44;10.38;;;7.57;;
31308;SDS011;17936;52.446;10.840;2022-12-08T12:24:17;18.77;;;8.80;;
31308;SDS011;17936;52.446;10.840;2022-12-08T12:26:56;14.00;;;8.50;;
31308;SDS011;17936;52.446;10.840;2022-12-08T12:29:49;13.55;;;7.80;;
31308;SDS011;17936;52.446;10.840;2022-12-08T12:32:23;18.05;;;9.38;;
31308;SDS011;17936;52.446;10.840;2022-12-08T12:34:51;15.55;;;9.35;;
31308;SDS011;17936;52.446;10.840;2022-12-08T12:37:20;15.32;;;9.65;;
31308;SDS011;17936;52.446;10.840;2022-12-08T12:40:05;18.75;;;9.77;;
31308;SDS011;17936;52.446;10.840;2022-12-08T12:50:40;11.93;;;6.97;;
31308;SDS011;17936;52.446;10.840;2022-12-08T12:56:00;12.10;;;7.35;;
31308;SDS011;17936;52.446;10.840;2022-12-08T13:03:34;11.38;;;7.30;;
31308;SDS011;17936;52.446;10.840;2022-12-08T13:06:12;15.73;;;7.07;;
31308;SDS011;17936;52.446;10.840;2022-12-08T13:08:39;11.55;;;6.97;;
31308;SDS011;17936;52.446;10.840;2022-12-08T13:11:14;12.50;;;6.50;;
31308;SDS011;17936;52.446;10.840;2022-12-08T13:13:56;12.10;;;6.60;;
31308;SDS011;17936;52.446;10.840;2022-12-08T13:16:25;10.18;;;5.90;;
31308;SDS011;17936;52.446;10.840;2022-12-08T13:18:56;9.43;;;5.53;;
31308;SDS011;17936;52.446;10.840;2022-12-08T13:21:23;11.90;;;6.13;;
31308;SDS011;17936;52.446;10.840;2022-12-08T13:24:12;12.45;;;6.57;;
31308;SDS011;17936;52.446;10.840;2022-12-08T13:26:50;11.70;;;6.07;;
31308;SDS011;17936;52.446;10.840;2022-12-08T13:29:37;9.40;;;5.93;;
31308;SDS011;17936;52.446;10.840;2022-12-08T13:32:50;9.40;;;5.85;;
31308;SDS011;17936;52.446;10.840;2022-12-08T13:34:54;8.05;;;5.93;;
31308;SDS011;17936;52.446;10.840;2022-12-08T13:37:26;9.52;;;5.40;;
31308;SDS011;17936;52.446;10.840;2022-12-08T13:40:07;11.02;;;6.22;;
31308;SDS011;17936;52.446;10.840;2022-12-08T13:45:12;9.82;;;5.72;;
31308;SDS011;17936;52.446;10.840;2022-12-08T13:47:44;8.68;;;5.72;;
31308;SDS011;17936;52.446;10.840;2022-12-08T13:50:25;8.95;;;5.90;;
31308;SDS011;17936;52.446;10.840;2022-12-08T13:55:28;9.60;;;5.38;;
31308;SDS011;17936;52.446;10.840;2022-12-08T13:58:00;12.18;;;6.03;;
31308;SDS011;17936;52.446;10.840;2022-12-08T14:00:26;11.23;;;5.65;;
31308;SDS011;17936;52.446;10.840;2022-12-08T14:02:54;9.30;;;5.32;;
31308;SDS011;17936;52.446;10.840;2022-12-08T14:05:22;8.45;;;4.88;;
31308;SDS011;17936;52.446;10.840;2022-12-08T14:07:51;7.82;;;4.95;;
31308;SDS011;17936;52.446;10.840;2022-12-08T14:10:19;8.88;;;4.88;;
31308;SDS011;17936;52.446;10.840;2022-12-08T14:12:51;8.57;;;5.30;;
31308;SDS011;17936;52.446;10.840;2022-12-08T14:15:24;7.40;;;4.47;;
31308;SDS011;17936;52.446;10.840;2022-12-08T14:17:50;9.27;;;5.45;;
31308;SDS011;17936;52.446;10.840;2022-12-08T14:20:19;7.55;;;5.20;;
31308;SDS011;17936;52.446;10.840;2022-12-08T14:22:54;6.45;;;4.18;;
31308;SDS011;17936;52.446;10.840;2022-12-08T14:25:21;8.73;;;5.13;;
31308;SDS011;17936;52.446;10.840;2022-12-08T14:27:48;13.30;;;5.55;;
31308;SDS011;17936;52.446;10.840;2022-12-08T14:30:23;10.25;;;4.60;;
31308;SDS011;17936;52.446;10.840;2022-12-08T14:32:51;5.60;;;4.03;;
31308;SDS011;17936;52.446;10.840;2022-12-08T14:35:24;8.20;;;4.47;;
31308;SDS011;17936;52.446;10.840;2022-12-08T14:45:54;6.18;;;4.32;;
31308;SDS011;17936;52.446;10.840;2022-12-08T14:48:38;6.55;;;4.32;;
31308;SDS011;17936;52.446;10.840;2022-12-08T14:51:20;7.25;;;4.70;;
31308;SDS011;17936;52.446;10.840;2022-12-08T14:54:07;8.20;;;4.50;;
31308;SDS011;17936;52.446;10.840;2022-12-08T14:56:39;6.97;;;4.13;;
31308;SDS011;17936;52.446;10.840;2022-12-08T14:59:19;7.53;;;4.85;;
31308;SDS011;17936;52.446;10.840;2022-12-08T15:04:41;7.55;;;4.50;;
31308;SDS011;17936;52.446;10.840;2022-12-08T15:14:38;9.02;;;5.13;;
31308;SDS011;17936;52.446;10.840;2022-12-08T15:19:55;10.40;;;5.13;;
31308;SDS011;17936;52.446;10.840;2022-12-08T15:22:22;7.15;;;4.80;;
31308;SDS011;17936;52.446;10.840;2022-12-08T15:24:48;9.13;;;4.97;;
31308;SDS011;17936;52.446;10.840;2022-12-08T15:27:15;8.88;;;4.88;;
31308;SDS011;17936;52.446;10.840;2022-12-08T15:29:42;13.95;;;4.50;;
31308;SDS011;17936;52.446;10.840;2022-12-08T15:32:08;10.38;;;5.18;;
31308;SDS011;17936;52.446;10.840;2022-12-08T15:34:35;9.00;;;5.65;;
31308;SDS011;17936;52.446;10.840;2022-12-08T15:37:01;9.13;;;5.00;;
31308;SDS011;17936;52.446;10.840;2022-12-08T15:39:35;8.88;;;5.28;;
31308;SDS011;17936;52.446;10.840;2022-12-08T15:42:02;7.80;;;5.05;;
31308;SDS011;17936;52.446;10.840;2022-12-08T15:44:28;8.50;;;5.47;;
31308;SDS011;17936;52.446;10.840;2022-12-08T15:46:56;9.43;;;5.60;;
31308;SDS011;17936;52.446;10.840;2022-12-08T15:49:22;11.05;;;6.28;;
31308;SDS011;17936;52.446;10.840;2022-12-08T15:51:49;12.57;;;7.22;;
31308;SDS011;17936;52.446;10.840;2022-12-08T15:54:15;14.82;;;9.00;;
31308;SDS011;17936;52.446;10.840;2022-12-08T15:56:45;16.75;;;9.77;;